地図

経路データ

SID SEASON NUMBER BASIN SUBBASIN NAME ISO_TIME NATURE LAT LON WMO_WIND WMO_PRES WMO_AGENCY TRACK_TYPE DIST2LAND LANDFALL IFLAG USA_AGENCY USA_ATCF_ID USA_LAT USA_LON USA_RECORD USA_STATUS USA_WIND USA_PRES USA_SSHS USA_R34_NE USA_R34_SE USA_R34_SW USA_R34_NW USA_R50_NE USA_R50_SE USA_R50_SW USA_R50_NW USA_R64_NE USA_R64_SE USA_R64_SW USA_R64_NW USA_POCI USA_ROCI USA_RMW USA_EYE TOKYO_LAT TOKYO_LON TOKYO_GRADE TOKYO_WIND TOKYO_PRES TOKYO_R50_DIR TOKYO_R50_LONG TOKYO_R50_SHORT TOKYO_R30_DIR TOKYO_R30_LONG TOKYO_R30_SHORT TOKYO_LAND CMA_LAT CMA_LON CMA_CAT CMA_WIND CMA_PRES HKO_LAT HKO_LON HKO_CAT HKO_WIND HKO_PRES NEWDELHI_LAT NEWDELHI_LON NEWDELHI_GRADE NEWDELHI_WIND NEWDELHI_PRES NEWDELHI_CI NEWDELHI_DP NEWDELHI_POCI REUNION_LAT REUNION_LON REUNION_TYPE REUNION_WIND REUNION_PRES REUNION_TNUM REUNION_CI REUNION_RMW REUNION_R34_NE REUNION_R34_SE REUNION_R34_SW REUNION_R34_NW REUNION_R50_NE REUNION_R50_SE REUNION_R50_SW REUNION_R50_NW REUNION_R64_NE REUNION_R64_SE REUNION_R64_SW REUNION_R64_NW BOM_LAT BOM_LON BOM_TYPE BOM_WIND BOM_PRES BOM_TNUM BOM_CI BOM_RMW BOM_R34_NE BOM_R34_SE BOM_R34_SW BOM_R34_NW BOM_R50_NE BOM_R50_SE BOM_R50_SW BOM_R50_NW BOM_R64_NE BOM_R64_SE BOM_R64_SW BOM_R64_NW BOM_ROCI BOM_POCI BOM_EYE BOM_POS_METHOD BOM_PRES_METHOD NADI_LAT NADI_LON NADI_CAT NADI_WIND NADI_PRES WELLINGTON_LAT WELLINGTON_LON WELLINGTON_WIND WELLINGTON_PRES DS824_LAT DS824_LON DS824_STAGE DS824_WIND DS824_PRES TD9636_LAT TD9636_LON TD9636_STAGE TD9636_WIND TD9636_PRES TD9635_LAT TD9635_LON TD9635_WIND TD9635_PRES TD9635_ROCI NEUMANN_LAT NEUMANN_LON NEUMANN_CLASS NEUMANN_WIND NEUMANN_PRES MLC_LAT MLC_LON MLC_CLASS MLC_WIND MLC_PRES USA_GUST BOM_GUST BOM_GUST_PER REUNION_GUST REUNION_GUST_PER USA_SEAHGT USA_SEARAD_NE USA_SEARAD_SE USA_SEARAD_SW USA_SEARAD_NW STORM_SPEED STORM_DIR
1963286N16071 1963 99 NI AS NOT_NAMED 1963-10-12 18:00:00 TS 15.8000 70.7000 main 288 288 O________O____ jtwc_io IO111963 15.8000 70.7000 -1 15.8000 70.7000 TC 1 288
1963286N16071 1963 99 NI AS NOT_NAMED 1963-10-12 21:00:00 TS 15.8125 70.6650 main 288 288 P________P____ IO111963 15.8125 70.6650 -1 15.8125 70.6650 TC 1 317
1963286N16071 1963 99 NI AS NOT_NAMED 1963-10-13 00:00:00 TS 15.9000 70.6000 main 296 293 O________O____ jtwc_io IO111963 15.9000 70.6000 -1 15.9000 70.6000 TC 25 3 329
1963286N16071 1963 99 NI AS NOT_NAMED 1963-10-13 03:00:00 TS 16.1111 70.4822 main 302 300 P________PO___ IO111963 16.1125 70.4800 -1 16.1125 70.4800 TC 25 16.1000 70.5000 1 6 330
1963286N16071 1963 99 NI AS NOT_NAMED 1963-10-13 06:00:00 TS 16.4044 70.2939 main 320 319 O________OP___ jtwc_io IO111963 16.4000 70.3000 -1 16.4000 70.3000 TC 25 16.4221 70.2694 1 7 325
1963286N16071 1963 99 NI AS NOT_NAMED 1963-10-13 09:00:00 TS 16.7096 70.0530 main 334 334 P________PP___ IO111963 16.7000 70.0576 -1 16.7000 70.0576 TC 25 16.7352 70.0407 1 8 322
1963286N16071 1963 99 NI AS NOT_NAMED 1963-10-13 12:00:00 TS 17.0102 69.8055 main 354 350 O________OP___ jtwc_io IO111963 17.0000 69.8000 -1 17.0000 69.8000 TC 25 17.0307 69.8166 1 7 322
1963286N16071 1963 99 NI AS NOT_NAMED 1963-10-13 15:00:00 TS 17.2766 69.5949 main 363 363 P________PO___ IO111963 17.2650 69.5924 -1 17.2650 69.5924 TC 25 17.3000 69.6000 1 6 322
1963286N16071 1963 99 NI AS NOT_NAMED 1963-10-13 18:00:00 TS 17.5123 69.3981 main 378 370 O________OP___ jtwc_io IO111963 17.5000 69.4000 -1 17.5000 69.4000 TC 25 17.5368 69.3942 1 6 319
1963286N16071 1963 99 NI AS NOT_NAMED 1963-10-13 21:00:00 TS 17.7200 69.1916 main 375 360 P________PP___ IO111963 17.7075 69.1850 -1 17.7075 69.1850 TC 30 17.7450 69.2048 1 5 317
1963286N16071 1963 99 NI AS NOT_NAMED 1963-10-14 00:00:00 TS 17.9102 69.0127 main 365 352 O________OP___ jtwc_io IO111963 17.9000 69.0000 -1 17.9000 69.0000 TC 35 17.9306 69.0380 1 5 323
1963286N16071 1963 99 NI AS NOT_NAMED 1963-10-14 03:00:00 TS 18.1100 68.8850 main 352 340 P________PO___ IO111963 18.1150 68.8775 -1 18.1150 68.8775 TC 35 18.1000 68.9000 2 4 331
1963286N16071 1963 99 NI AS NOT_NAMED 1963-10-14 06:00:00 TS 18.2867 68.7973 main 340 331 O________OP___ jtwc_io IO111963 18.3000 68.8000 -1 18.3000 68.8000 TC 35 18.2602 68.7920 2 3 334
1963286N16071 1963 99 NI AS NOT_NAMED 1963-10-14 09:00:00 TS 18.4025 68.7374 main 337 327 P________PP___ IO111963 18.4000 68.7499 -1 18.4000 68.7499 TC 35 18.4074 68.7122 2 3 335
1963286N16071 1963 99 NI AS NOT_NAMED 1963-10-14 12:00:00 TS 18.5170 68.6838 main 327 316 O________OP___ jtwc_io IO111963 18.5000 68.7000 -1 18.5000 68.7000 TC 35 18.5509 68.6514 2 3 336
1963286N16071 1963 99 NI AS NOT_NAMED 1963-10-14 15:00:00 TS 18.6950 68.6000 main 316 303 P________PO___ IO111963 18.6925 68.6001 -1 18.6925 68.6001 TC 35 18.7000 68.6000 3 4 336
1963286N16071 1963 99 NI AS NOT_NAMED 1963-10-14 18:00:00 TS 18.8784 68.5116 main 303 294 O________OP___ jtwc_io IO111963 18.9000 68.5000 -1 18.9000 68.5000 TC 35 18.8353 68.5347 3 4 336
1963286N16071 1963 99 NI AS NOT_NAMED 1963-10-14 21:00:00 TS 19.0225 68.4492 main 300 283 P________PP___ IO111963 19.0425 68.4350 -1 19.0425 68.4350 TC 35 18.9825 68.4775 3 3 343
1963286N16071 1963 99 NI AS NOT_NAMED 1963-10-15 00:00:00 TS 19.1878 68.4105 main 283 267 O________OP___ jtwc_io IO111963 19.2000 68.4000 -1 19.2000 68.4000 TC 35 19.1634 68.4316 3 4 352
1963286N16071 1963 99 NI AS NOT_NAMED 1963-10-15 03:00:00 TS 19.4083 68.3950 main 267 243 P________PO___ IO111963 19.4125 68.3925 -1 19.4125 68.3925 TC 35 19.4000 68.4000 3 5 0
1963286N16071 1963 99 NI AS NOT_NAMED 1963-10-15 06:00:00 TS 19.7112 68.4005 main 243 213 O________OP___ jtwc_io IO111963 19.7000 68.4000 -1 19.7000 68.4000 TC 35 19.7337 68.4015 3 7 2
1963286N16071 1963 99 NI AS NOT_NAMED 1963-10-15 09:00:00 TS 20.0967 68.4098 main 213 182 P________PP___ IO111963 20.0850 68.4074 -1 20.0850 68.4074 TC 35 20.1200 68.4145 3 8 2
1963286N16071 1963 99 NI AS NOT_NAMED 1963-10-15 12:00:00 TS 20.5071 68.4067 main 182 151 O________OP___ jtwc_io IO111963 20.5000 68.4000 -1 20.5000 68.4000 TC 35 20.5212 68.4202 3 8 357
1963286N16071 1963 99 NI AS NOT_NAMED 1963-10-15 15:00:00 TS 20.8767 68.3767 main 151 136 P________PO___ IO111963 20.8650 68.3650 -1 20.8650 68.3650 TC 35 20.9000 68.4000 3 7 353
1963286N16071 1963 99 NI AS NOT_NAMED 1963-10-15 18:00:00 TS 21.2067 68.3123 main 136 114 O________OP___ jtwc_io IO111963 21.2000 68.3000 -1 21.2000 68.3000 TC 35 21.2200 68.3370 3 7 347
1963286N16071 1963 99 NI AS NOT_NAMED 1963-10-15 21:00:00 TS 21.5183 68.2201 main 114 98 P________PP___ IO111963 21.5225 68.2075 -1 21.5225 68.2075 TC 35 21.5100 68.2452 3 6 342
1963286N16071 1963 99 NI AS NOT_NAMED 1963-10-16 00:00:00 TS 21.7900 68.1102 main 99 93 O________OP___ jtwc_io IO111963 21.8000 68.1000 -1 21.8000 68.1000 TC 35 21.7700 68.1307 3 5 338
1963286N16071 1963 99 NI AS NOT_NAMED 1963-10-16 03:00:00 TS 22.0150 68.0050 main 98 95 P________PO___ IO111963 22.0225 68.0074 -1 22.0225 68.0074 TC 35 22.0000 68.0000 3 5 333
1963286N16071 1963 99 NI AS NOT_NAMED 1963-10-16 06:00:00 TS 22.2026 67.8881 main 103 103 O________OP___ jtwc_io IO111963 22.2000 67.9000 -1 22.2000 67.9000 TC 35 22.2078 67.8643 3 4 325
1963286N16071 1963 99 NI AS NOT_NAMED 1963-10-16 09:00:00 TS 22.3625 67.7433 main 123 123 P________PP___ IO111963 22.3500 67.7574 -1 22.3500 67.7574 TC 30 22.3875 67.7149 3 4 318
1963286N16071 1963 99 NI AS NOT_NAMED 1963-10-16 12:00:00 TS 22.5161 67.5860 main 128 122 O________OP___ jtwc_io IO111963 22.5000 67.6000 -1 22.5000 67.6000 TC 25 22.5484 67.5580 3 4 320
1963286N16071 1963 99 NI AS NOT_NAMED 1963-10-16 15:00:00 TS 22.7000 67.4333 main 124 105 P________PO___ IO111963 22.7000 67.4500 -1 22.7000 67.4500 TC 25 22.7000 67.4000 1 5 322
1963286N16071 1963 99 NI AS NOT_NAMED 1963-10-16 18:00:00 TS 22.8800 67.2783 main 105 98 O________OP___ jtwc_io IO111963 22.9000 67.3000 -1 22.9000 67.3000 TC 25 22.8500 67.2458 1 4 320
1963286N16071 1963 99 NI AS NOT_NAMED 1963-10-16 21:00:00 TS 23.0358 67.1266 main 102 90 P________PP___ IO111963 23.0625 67.1500 -1 23.0625 67.1500 TC 25 23.0001 67.0953 1 4 316
1963286N16071 1963 99 NI AS NOT_NAMED 1963-10-17 00:00:00 TS 23.1750 66.9736 main 90 90 O________OP___ jtwc_io IO111963 23.2000 67.0000 -1 23.2000 67.0000 TC 25 23.1501 66.9471 1 4 311
1963286N16071 1963 99 NI AS NOT_NAMED 1963-10-17 03:00:00 NR 23.3000 66.8000 main 97 __________O___ IO111963 -1 TC 23.3000 66.8000 1 4 308

IBTrACS Databaseについて

本データベースは、米国NOAAが公開する1842年以降の世界の熱帯低気圧のベストトラックデータアーカイブInternational Best Track Archive for Climate Stewardship (IBTrACS)を、ウェブで閲覧しやすい形式に変換したものです。

最終更新日:2021-12-03